createdAt,value
2022-09-09T00:01:51.087Z,551.90
2022-09-09T00:04:38.935Z,544.38
2022-09-09T00:07:33.765Z,544.35
2022-09-09T00:10:26.950Z,526.13
2022-09-09T00:13:17.133Z,541.95
2022-09-09T00:16:06.358Z,546.83
2022-09-09T00:19:22.188Z,548.42
2022-09-09T00:22:16.755Z,540.10
2022-09-09T00:24:54.532Z,537.83
2022-09-09T00:27:36.654Z,535.03
2022-09-09T00:30:23.554Z,550.42
2022-09-09T00:32:59.433Z,544.38
2022-09-09T00:35:34.972Z,550.90
2022-09-09T00:38:19.792Z,548.55
2022-09-09T00:41:03.079Z,549.47
2022-09-09T00:43:34.047Z,552.33
2022-09-09T00:46:26.636Z,560.40
2022-09-09T00:49:47.547Z,543.65
2022-09-09T00:52:38.001Z,548.50
2022-09-09T00:55:24.108Z,519.13
2022-09-09T00:57:54.099Z,542.38
2022-09-09T01:00:22.530Z,546.95
2022-09-09T01:03:25.088Z,570.28
2022-09-09T01:06:17.919Z,549.55
2022-09-09T01:09:01.012Z,567.28
2022-09-09T01:11:51.398Z,534.47
2022-09-09T01:14:37.932Z,561.05
2022-09-09T01:17:30.473Z,550.97
2022-09-09T01:20:20.966Z,541.75
2022-09-09T01:23:10.677Z,542.13
2022-09-09T01:25:44.760Z,521.20
2022-09-09T01:28:28.399Z,570.05
2022-09-09T01:31:05.866Z,556.97
2022-09-09T01:33:40.720Z,537.72
2022-09-09T01:36:36.829Z,538.35
2022-09-09T01:39:04.786Z,549.00
2022-09-09T01:41:33.600Z,549.25
2022-09-09T01:44:06.678Z,536.88
2022-09-09T01:46:36.800Z,542.80
2022-09-09T01:49:08.526Z,540.90
2022-09-09T01:51:38.972Z,550.03
2022-09-09T01:54:09.940Z,533.55
2022-09-09T01:57:11.742Z,545.30
2022-09-09T02:00:10.102Z,532.67
2022-09-09T02:03:16.854Z,540.08
2022-09-09T02:06:08.469Z,532.58
2022-09-09T02:08:53.521Z,532.92
2022-09-09T02:11:25.191Z,539.85
2022-09-09T02:14:13.787Z,535.33
2022-09-09T02:16:58.198Z,540.63
2022-09-09T02:20:00.856Z,534.63
2022-09-09T02:22:45.336Z,555.15
2022-09-09T02:25:20.266Z,552.55
2022-09-09T02:27:52.578Z,547.85
2022-09-09T02:30:21.691Z,578.75
2022-09-09T02:32:59.609Z,555.50
2022-09-09T02:35:43.179Z,542.55
2022-09-09T02:38:14.995Z,558.58
2022-09-09T02:40:52.259Z,563.58
2022-09-09T02:43:20.750Z,559.63
2022-09-09T02:46:36.411Z,548.78
2022-09-09T02:49:11.234Z,522.80
2022-09-09T02:51:58.886Z,559.38
2022-09-09T02:54:33.644Z,562.88
2022-09-09T02:57:26.898Z,556.78
2022-09-09T02:59:59.761Z,543.22
2022-09-09T03:02:27.900Z,523.00
2022-09-09T03:05:02.662Z,551.67
2022-09-09T03:07:30.630Z,557.05
2022-09-09T03:09:59.321Z,568.00
2022-09-09T03:12:28.931Z,558.75
2022-09-09T03:14:56.777Z,561.05
2022-09-09T03:17:25.749Z,558.97
2022-09-09T03:19:56.091Z,545.25
2022-09-09T03:22:24.237Z,545.90
2022-09-09T03:24:52.897Z,544.10
2022-09-09T03:27:20.851Z,545.50
2022-09-09T03:29:52.028Z,559.33
2022-09-09T03:32:27.183Z,543.08
2022-09-09T03:34:58.032Z,543.50
2022-09-09T03:37:26.085Z,547.88
2022-09-09T03:39:55.594Z,532.47
2022-09-09T03:42:24.477Z,539.60
2022-09-09T03:44:55.631Z,542.28
2022-09-09T03:47:26.062Z,539.80
2022-09-09T03:49:58.849Z,538.25
2022-09-09T03:52:27.394Z,545.83
2022-09-09T03:54:56.401Z,518.25
2022-09-09T03:57:24.201Z,535.35
2022-09-09T03:59:52.057Z,528.55
2022-09-09T04:02:20.028Z,539.95
2022-09-09T04:04:48.355Z,517.03
2022-09-09T04:07:16.917Z,527.72
2022-09-09T04:09:45.949Z,529.00
2022-09-09T04:12:15.428Z,539.88
2022-09-09T04:14:43.517Z,528.08
2022-09-09T04:17:12.071Z,532.60
2022-09-09T04:19:39.958Z,529.88
2022-09-09T04:22:08.333Z,528.75
2022-09-09T04:24:36.360Z,528.50
2022-09-09T04:27:04.368Z,534.70
2022-09-09T04:29:34.871Z,554.60
2022-09-09T04:32:03.350Z,536.08
2022-09-09T04:34:32.349Z,539.72
2022-09-09T04:37:01.424Z,551.00
2022-09-09T04:39:29.932Z,527.30
2022-09-09T04:41:59.306Z,533.88
2022-09-09T04:44:27.386Z,535.75
2022-09-09T04:46:57.111Z,533.47
2022-09-09T04:49:25.024Z,531.50
2022-09-09T04:51:53.582Z,551.45
2022-09-09T04:54:21.336Z,556.38
2022-09-09T04:56:51.648Z,532.55
2022-09-09T04:59:20.177Z,531.70
2022-09-09T05:01:52.065Z,541.25
2022-09-09T05:04:20.468Z,539.33
2022-09-09T05:06:48.390Z,551.85
2022-09-09T05:09:16.809Z,535.88
2022-09-09T05:11:46.200Z,532.08
2022-09-09T05:14:27.663Z,533.38
2022-09-09T05:16:57.163Z,537.13
2022-09-09T05:19:25.710Z,541.15
2022-09-09T05:21:54.950Z,528.58
2022-09-09T05:24:29.331Z,529.67
2022-09-09T05:27:02.082Z,537.13
2022-09-09T05:29:30.125Z,533.80
2022-09-09T05:31:58.793Z,545.90
2022-09-09T05:34:26.805Z,529.10
2022-09-09T05:36:54.926Z,527.55
2022-09-09T05:39:24.512Z,529.03
2022-09-09T05:41:52.921Z,535.35
2022-09-09T05:44:21.397Z,548.92
2022-09-09T05:46:49.317Z,532.15
2022-09-09T05:49:18.101Z,527.05
2022-09-09T05:51:46.345Z,526.75
2022-09-09T05:54:16.547Z,530.20
2022-09-09T05:56:51.805Z,530.95
2022-09-09T05:59:21.107Z,530.00
2022-09-09T06:01:49.095Z,532.70
2022-09-09T06:04:32.397Z,531.88
2022-09-09T06:07:02.067Z,534.35
2022-09-09T06:09:31.575Z,536.97
2022-09-09T06:11:59.563Z,541.92
2022-09-09T06:14:28.251Z,543.45
2022-09-09T06:16:58.944Z,535.67
2022-09-09T06:19:31.734Z,542.35
2022-09-09T06:22:00.717Z,523.47
2022-09-09T06:24:31.327Z,543.75
2022-09-09T06:27:01.351Z,546.17
2022-09-09T06:29:33.821Z,537.65
2022-09-09T06:32:04.198Z,531.72
2022-09-09T06:34:32.331Z,542.60
2022-09-09T06:37:01.747Z,539.45
2022-09-09T06:39:36.669Z,549.08
2022-09-09T06:42:05.088Z,538.95
2022-09-09T06:44:51.013Z,551.15
2022-09-09T06:47:25.868Z,540.92
2022-09-09T06:49:54.591Z,561.78
2022-09-09T06:52:22.407Z,562.90
2022-09-09T06:54:51.754Z,549.58
2022-09-09T07:00:15.189Z,564.10
2022-09-09T07:02:43.177Z,557.53
2022-09-09T07:05:12.542Z,599.30
2022-09-09T07:07:42.889Z,571.70
2022-09-09T07:10:13.036Z,583.80
2022-09-09T07:12:41.422Z,602.45
2022-09-09T07:15:12.137Z,594.05
2022-09-09T07:17:43.293Z,603.75
2022-09-09T07:20:11.734Z,596.80
2022-09-09T07:22:40.359Z,606.67
2022-09-09T07:25:09.477Z,614.08
2022-09-09T07:27:38.373Z,611.05
2022-09-09T07:30:07.823Z,619.75
2022-09-09T07:32:36.690Z,623.92
2022-09-09T07:35:04.975Z,630.72
2022-09-09T07:37:32.789Z,637.60
2022-09-09T07:40:03.271Z,636.67
2022-09-09T07:42:32.078Z,645.70
2022-09-09T07:45:00.478Z,659.97
2022-09-09T07:47:28.756Z,671.38
2022-09-09T07:49:59.906Z,657.83
2022-09-09T07:52:32.456Z,647.50
2022-09-09T07:55:05.644Z,668.70
2022-09-09T07:57:34.103Z,658.75
2022-09-09T08:00:04.569Z,670.92
2022-09-09T08:02:40.213Z,669.28
2022-09-09T08:05:09.880Z,683.80
2022-09-09T08:07:40.233Z,675.40
2022-09-09T08:10:08.917Z,682.08
2022-09-09T08:12:40.271Z,681.25
2022-09-09T08:15:13.654Z,673.28
2022-09-09T08:17:41.968Z,677.80
2022-09-09T08:20:10.700Z,691.28
2022-09-09T08:22:40.067Z,683.05
2022-09-09T08:25:09.553Z,679.38
2022-09-09T08:27:39.018Z,689.17
2022-09-09T08:30:09.108Z,698.58
2022-09-09T08:32:37.748Z,702.30
2022-09-09T08:35:08.591Z,701.42
2022-09-09T08:37:36.869Z,705.53
2022-09-09T08:40:09.548Z,709.45
2022-09-09T08:42:48.127Z,715.17
2022-09-09T08:45:33.528Z,713.35
2022-09-09T08:48:18.459Z,721.90
2022-09-09T08:50:50.517Z,719.35
2022-09-09T08:53:31.388Z,726.35
2022-09-09T08:56:11.262Z,734.03
2022-09-09T08:58:54.533Z,733.40
2022-09-09T09:02:16.792Z,735.90
2022-09-09T09:05:14.773Z,756.20
2022-09-09T09:07:57.801Z,753.03
2022-09-09T09:11:01.180Z,765.13
2022-09-09T09:13:44.038Z,750.80
2022-09-09T09:16:27.748Z,747.67
2022-09-09T09:18:56.200Z,748.20
2022-09-09T09:22:11.698Z,768.33
2022-09-09T09:24:58.279Z,757.55
2022-09-09T09:27:45.087Z,749.42
2022-09-09T09:30:30.048Z,753.20
2022-09-09T09:33:27.933Z,752.08
2022-09-09T09:35:55.984Z,744.35
2022-09-09T09:41:15.941Z,770.30
2022-09-09T09:43:55.533Z,772.78
2022-09-09T09:46:28.316Z,756.15
2022-09-09T09:49:09.831Z,760.47
2022-09-09T09:51:38.853Z,757.25
2022-09-09T09:54:14.314Z,765.85
2022-09-09T09:56:45.015Z,761.83
2022-09-09T09:59:39.526Z,771.38
2022-09-09T10:02:26.675Z,767.67
2022-09-09T10:05:20.985Z,780.33
2022-09-09T10:08:22.163Z,774.58
2022-09-09T10:11:49.269Z,786.40
2022-09-09T10:14:38.677Z,788.80
2022-09-09T10:17:33.822Z,802.70
2022-09-09T10:20:13.692Z,811.53
2022-09-09T10:22:48.617Z,832.80
2022-09-09T10:25:40.907Z,839.28
2022-09-09T10:29:13.279Z,829.17
2022-09-09T10:32:21.612Z,841.15
2022-09-09T10:35:27.121Z,844.38
2022-09-09T10:38:12.104Z,847.53
2022-09-09T10:40:59.184Z,869.60
2022-09-09T10:43:46.548Z,875.25
2022-09-09T10:46:23.859Z,879.85
2022-09-09T10:49:24.331Z,891.28
2022-09-09T10:52:21.928Z,888.78
2022-09-09T10:55:02.820Z,899.33
2022-09-09T10:57:49.794Z,903.80
2022-09-09T11:00:46.736Z,900.05
2022-09-09T11:03:23.562Z,909.38
2022-09-09T11:06:06.069Z,915.55
2022-09-09T11:08:39.550Z,915.40
2022-09-09T11:11:28.206Z,921.13
2022-09-09T11:14:21.636Z,921.63
2022-09-09T11:16:57.274Z,917.17
2022-09-09T11:19:36.918Z,915.85
2022-09-09T11:22:52.005Z,917.17
2022-09-09T11:25:23.604Z,913.47
2022-09-09T11:28:12.952Z,917.15
2022-09-09T11:31:17.822Z,910.70
2022-09-09T11:34:31.613Z,912.63
2022-09-09T11:37:33.256Z,914.65
2022-09-09T11:40:20.519Z,920.67
2022-09-09T11:42:52.160Z,922.80
2022-09-09T11:45:30.244Z,929.58
2022-09-09T11:48:01.171Z,927.75
2022-09-09T11:50:38.604Z,924.30
2022-09-09T11:53:23.685Z,928.90
2022-09-09T11:56:14.459Z,922.72
2022-09-09T11:58:54.536Z,926.08
2022-09-09T12:01:38.127Z,930.72
2022-09-09T12:04:40.791Z,920.05
2022-09-09T12:07:12.340Z,922.70
2022-09-09T12:09:50.082Z,922.75
2022-09-09T12:12:25.226Z,925.40
2022-09-09T12:15:08.317Z,921.50
2022-09-09T12:17:51.633Z,915.15
2022-09-09T12:20:24.659Z,906.75
2022-09-09T12:23:17.312Z,906.38
2022-09-09T12:26:27.976Z,905.83
2022-09-09T12:29:06.861Z,894.13
2022-09-09T12:32:01.558Z,897.47
2022-09-09T12:34:41.147Z,892.90
2022-09-09T12:37:36.421Z,886.38
2022-09-09T12:40:25.743Z,884.70
2022-09-09T12:42:56.311Z,882.30
2022-09-09T12:45:28.049Z,873.72
2022-09-09T12:48:04.601Z,874.50
2022-09-09T12:50:49.906Z,859.05
2022-09-09T12:53:33.965Z,852.78
2022-09-09T12:56:22.606Z,845.20
2022-09-09T12:58:52.954Z,836.53
2022-09-09T13:01:31.139Z,846.50
2022-09-09T13:04:00.008Z,840.65
2022-09-09T13:06:30.846Z,842.38
2022-09-09T13:09:02.095Z,834.72
2022-09-09T13:11:44.405Z,837.72
2022-09-09T13:14:27.397Z,834.95
2022-09-09T13:17:04.606Z,843.88
2022-09-09T13:19:38.956Z,837.25
2022-09-09T13:22:23.466Z,846.30
2022-09-09T13:25:14.954Z,845.38
2022-09-09T13:27:54.421Z,854.65
2022-09-09T13:30:28.690Z,851.40
2022-09-09T13:33:24.062Z,860.90
2022-09-09T13:36:08.383Z,873.78
2022-09-09T13:39:00.571Z,862.35
2022-09-09T13:41:47.861Z,869.30
2022-09-09T13:44:24.025Z,863.75
2022-09-09T13:47:10.176Z,872.92
2022-09-09T13:49:38.727Z,879.88
2022-09-09T13:52:15.384Z,879.33
2022-09-09T13:54:43.877Z,893.53
2022-09-09T13:57:25.476Z,887.75
2022-09-09T14:00:11.315Z,889.28
2022-09-09T14:02:40.202Z,898.58
2022-09-09T14:05:08.210Z,905.58
2022-09-09T14:07:36.084Z,908.45
2022-09-09T14:10:04.121Z,908.85
2022-09-09T14:12:32.020Z,914.38
2022-09-09T14:15:00.879Z,931.65
2022-09-09T14:17:31.565Z,941.25
2022-09-09T14:19:59.764Z,930.05
2022-09-09T14:22:27.552Z,924.63
2022-09-09T14:25:17.892Z,933.97
2022-09-09T14:27:46.945Z,937.72
2022-09-09T14:30:14.773Z,957.00
2022-09-09T14:32:42.527Z,936.13
2022-09-09T14:35:10.378Z,943.17
2022-09-09T14:37:40.057Z,934.78
2022-09-09T14:40:08.542Z,933.22
2022-09-09T14:42:36.371Z,932.15
2022-09-09T14:45:04.720Z,941.22
2022-09-09T14:47:32.502Z,917.63
2022-09-09T14:50:01.985Z,915.30
2022-09-09T14:52:31.230Z,909.50
2022-09-09T14:54:59.041Z,898.38
2022-09-09T14:57:26.904Z,876.63
2022-09-09T14:59:54.730Z,859.35
2022-09-09T15:02:22.757Z,851.63
2022-09-09T15:04:54.448Z,834.22
2022-09-09T15:07:23.282Z,819.70
2022-09-09T15:09:51.418Z,806.50
2022-09-09T15:12:19.873Z,795.60
2022-09-09T15:14:48.144Z,795.45
2022-09-09T15:17:15.922Z,794.47
2022-09-09T15:19:43.737Z,777.35
2022-09-09T15:22:11.475Z,782.10
2022-09-09T15:24:39.303Z,775.20
2022-09-09T15:27:07.134Z,773.65
2022-09-09T15:29:34.938Z,766.63
2022-09-09T15:32:03.129Z,764.78
2022-09-09T15:34:30.962Z,760.72
2022-09-09T15:37:00.921Z,767.17
2022-09-09T15:39:29.300Z,768.22
2022-09-09T15:41:57.838Z,774.85
2022-09-09T15:44:26.518Z,775.53
2022-09-09T15:46:57.594Z,782.33
2022-09-09T15:49:27.338Z,782.83
2022-09-09T15:52:03.313Z,790.35
2022-09-09T15:54:40.090Z,788.47
2022-09-09T15:57:12.519Z,799.22
2022-09-09T15:59:41.250Z,808.15
2022-09-09T16:02:11.113Z,812.13
2022-09-09T16:04:39.082Z,816.95
2022-09-09T16:07:07.228Z,818.22
2022-09-09T16:09:36.120Z,822.45
2022-09-09T16:12:10.736Z,823.22
2022-09-09T16:14:39.617Z,818.58
2022-09-09T16:17:07.869Z,821.00
2022-09-09T16:19:36.081Z,817.80
2022-09-09T16:22:05.114Z,822.05
2022-09-09T16:24:33.079Z,815.05
2022-09-09T16:27:01.019Z,820.40
2022-09-09T16:29:28.884Z,824.65
2022-09-09T16:32:00.054Z,820.10
2022-09-09T16:34:34.577Z,812.17
2022-09-09T16:37:03.169Z,816.40
2022-09-09T16:39:31.090Z,815.30
2022-09-09T16:41:58.878Z,816.95
2022-09-09T16:44:27.186Z,823.83
2022-09-09T16:47:00.467Z,819.60
2022-09-09T16:49:31.868Z,809.80
2022-09-09T16:52:00.587Z,809.47
2022-09-09T16:54:30.091Z,811.95
2022-09-09T16:56:58.673Z,805.20
2022-09-09T16:59:27.622Z,794.97
2022-09-09T17:01:55.962Z,802.05
2022-09-09T17:04:28.919Z,787.40
2022-09-09T17:07:01.345Z,786.95
2022-09-09T17:09:30.305Z,776.17
2022-09-09T17:11:59.505Z,769.97
2022-09-09T17:14:27.400Z,783.88
2022-09-09T17:16:55.134Z,789.45
2022-09-09T17:19:23.321Z,779.40
2022-09-09T17:22:16.861Z,780.38
2022-09-09T17:24:39.872Z,778.22
2022-09-09T17:27:08.208Z,776.08
2022-09-09T17:29:36.999Z,778.20
2022-09-09T17:32:06.479Z,768.90
2022-09-09T17:34:36.025Z,772.25
2022-09-09T17:37:05.337Z,769.95
2022-09-09T17:39:33.836Z,751.88
2022-09-09T17:42:01.772Z,767.55
2022-09-09T17:44:29.983Z,745.15
2022-09-09T17:46:58.164Z,720.58
2022-09-09T17:49:26.265Z,727.38
2022-09-09T17:51:55.457Z,716.60
2022-09-09T17:54:23.973Z,710.30
2022-09-09T17:56:51.872Z,705.13
2022-09-09T17:59:20.329Z,691.83
2022-09-09T18:01:52.996Z,713.58
2022-09-09T18:04:21.054Z,696.35
2022-09-09T18:06:52.821Z,699.25
2022-09-09T18:09:25.770Z,708.15
2022-09-09T18:11:56.998Z,679.97
2022-09-09T18:14:31.480Z,676.83
2022-09-09T18:17:01.613Z,667.80
2022-09-09T18:19:33.118Z,680.80
2022-09-09T18:22:02.884Z,670.80
2022-09-09T18:24:31.867Z,661.50
2022-09-09T18:26:59.814Z,655.47
2022-09-09T18:29:27.865Z,637.58
2022-09-09T18:31:56.273Z,647.63
2022-09-09T18:34:25.966Z,649.40
2022-09-09T18:36:55.833Z,649.50
2022-09-09T18:39:28.031Z,643.03
2022-09-09T18:42:01.641Z,638.22
2022-09-09T18:44:33.346Z,628.83
2022-09-09T18:47:01.825Z,622.97
2022-09-09T18:49:30.062Z,624.70
2022-09-09T18:51:58.044Z,622.55
2022-09-09T18:54:30.193Z,648.13
2022-09-09T18:57:00.765Z,620.00
2022-09-09T18:59:29.651Z,611.63
2022-09-09T19:01:57.950Z,608.83
2022-09-09T19:04:27.378Z,608.22
2022-09-09T19:06:59.822Z,599.95
2022-09-09T19:09:31.706Z,597.55
2022-09-09T19:12:01.288Z,599.92
2022-09-09T19:14:29.756Z,597.85
2022-09-09T19:16:57.980Z,602.50
2022-09-09T19:19:31.218Z,594.95
2022-09-09T19:22:00.607Z,595.88
2022-09-09T19:24:32.006Z,586.20
2022-09-09T19:27:04.598Z,587.30
2022-09-09T19:29:36.525Z,587.75
2022-09-09T19:34:53.159Z,581.03
2022-09-09T19:37:22.490Z,584.25
2022-09-09T19:39:50.807Z,572.30
2022-09-09T19:42:19.245Z,580.90
2022-09-09T19:44:47.518Z,579.72
2022-09-09T19:47:15.691Z,589.38
2022-09-09T19:49:47.003Z,595.42
2022-09-09T19:52:17.083Z,583.13
2022-09-09T19:54:46.761Z,584.35
2022-09-09T19:57:16.199Z,571.90
2022-09-09T19:59:44.108Z,569.30
2022-09-09T20:02:15.913Z,582.97
2022-09-09T20:04:44.623Z,566.22
2022-09-09T20:07:12.989Z,571.17
2022-09-09T20:09:40.768Z,577.95
2022-09-09T20:12:08.723Z,571.30
2022-09-09T20:14:39.562Z,565.55
2022-09-09T20:17:08.285Z,575.42
2022-09-09T20:19:36.215Z,574.78
2022-09-09T20:22:04.420Z,568.55
2022-09-09T20:24:32.193Z,574.33
2022-09-09T20:26:59.990Z,578.05
2022-09-09T20:29:27.799Z,576.33
2022-09-09T20:31:55.614Z,576.92
2022-09-09T20:34:25.957Z,577.80
2022-09-09T20:36:54.713Z,572.75
2022-09-09T20:39:22.569Z,562.42
2022-09-09T20:41:50.636Z,575.83
2022-09-09T20:44:24.268Z,590.00
2022-09-09T20:47:02.819Z,592.08
2022-09-09T20:49:30.955Z,574.28
2022-09-09T20:51:58.831Z,586.42
2022-09-09T20:54:30.316Z,572.47
2022-09-09T20:57:00.395Z,581.15
2022-09-09T20:59:34.746Z,564.30
2022-09-09T21:02:03.441Z,567.88
2022-09-09T21:04:31.671Z,569.33
2022-09-09T21:06:59.621Z,582.72
2022-09-09T21:09:27.377Z,569.45
2022-09-09T21:11:55.261Z,567.30
2022-09-09T21:14:23.125Z,567.40
2022-09-09T21:16:51.186Z,576.35
2022-09-09T21:19:18.949Z,572.60
2022-09-09T21:21:47.947Z,592.78
2022-09-09T21:24:17.008Z,584.58
2022-09-09T21:26:44.940Z,568.90
2022-09-09T21:29:13.233Z,568.00
2022-09-09T21:31:43.178Z,576.88
2022-09-09T21:34:13.470Z,557.83
2022-09-09T21:36:41.322Z,563.85
2022-09-09T21:39:09.301Z,575.17
2022-09-09T21:41:37.066Z,569.72
2022-09-09T21:44:04.862Z,571.63
2022-09-09T21:46:32.745Z,570.65
2022-09-09T21:49:03.509Z,567.72
2022-09-09T21:51:31.305Z,572.95
2022-09-09T21:53:59.067Z,567.03
2022-09-09T21:56:27.052Z,570.05
2022-09-09T21:58:59.687Z,562.33
2022-09-09T22:01:27.546Z,560.63
2022-09-09T22:03:55.748Z,570.67
2022-09-09T22:06:23.554Z,563.78
2022-09-09T22:08:51.728Z,555.85
2022-09-09T22:11:22.544Z,557.80
2022-09-09T22:13:53.197Z,566.03
2022-09-09T22:16:23.552Z,568.35
2022-09-09T22:19:01.829Z,557.15
2022-09-09T22:21:33.042Z,551.05
2022-09-09T22:24:04.541Z,557.80
2022-09-09T22:26:35.084Z,556.53
2022-09-09T22:29:04.989Z,563.50
2022-09-09T22:31:34.100Z,554.30
2022-09-09T22:34:02.952Z,554.22
2022-09-09T22:36:31.900Z,565.08
2022-09-09T22:39:00.040Z,555.22
2022-09-09T22:41:30.018Z,563.90
2022-09-09T22:43:58.971Z,557.45
2022-09-09T22:46:26.873Z,546.85
2022-09-09T22:48:55.042Z,556.28
2022-09-09T22:51:23.004Z,563.25
2022-09-09T22:53:50.920Z,551.63
2022-09-09T22:56:20.738Z,557.90
2022-09-09T22:58:53.341Z,555.65
2022-09-09T23:01:22.366Z,554.05
2022-09-09T23:03:51.337Z,548.90
2022-09-09T23:06:23.033Z,537.72
2022-09-09T23:09:00.585Z,558.33
2022-09-09T23:11:33.355Z,554.10
2022-09-09T23:14:04.007Z,540.15
2022-09-09T23:16:41.542Z,541.80
2022-09-09T23:19:16.053Z,539.90
2022-09-09T23:21:46.259Z,549.63
2022-09-09T23:24:17.584Z,551.70
2022-09-09T23:26:46.530Z,550.83
2022-09-09T23:29:15.034Z,547.00
2022-09-09T23:31:45.755Z,540.83
2022-09-09T23:34:14.399Z,544.97
2022-09-09T23:36:42.398Z,533.38
2022-09-09T23:39:13.258Z,544.75
2022-09-09T23:41:41.417Z,534.60
2022-09-09T23:44:10.117Z,541.15
2022-09-09T23:46:38.040Z,528.70
2022-09-09T23:49:08.319Z,530.95
2022-09-09T23:51:37.877Z,535.55
2022-09-09T23:54:06.670Z,536.53
2022-09-09T23:56:42.463Z,528.60
2022-09-09T23:59:11.299Z,533.97
